sensor_id;sensor_type;location;lat;lon;timestamp;P1;durP1;ratioP1;P2;durP2;ratioP2
422;SDS011;198;48.752;9.180;2022-12-18T00:01:37;52.20;;;20.57;;
422;SDS011;198;48.752;9.180;2022-12-18T00:04:04;64.87;;;17.00;;
422;SDS011;198;48.752;9.180;2022-12-18T00:06:30;60.03;;;17.60;;
422;SDS011;198;48.752;9.180;2022-12-18T00:08:58;55.30;;;18.67;;
422;SDS011;198;48.752;9.180;2022-12-18T00:11:26;60.97;;;20.57;;
422;SDS011;198;48.752;9.180;2022-12-18T00:13:53;59.03;;;20.10;;
422;SDS011;198;48.752;9.180;2022-12-18T00:16:21;42.47;;;17.53;;
422;SDS011;198;48.752;9.180;2022-12-18T00:18:48;55.83;;;16.03;;
422;SDS011;198;48.752;9.180;2022-12-18T00:21:15;51.90;;;17.13;;
422;SDS011;198;48.752;9.180;2022-12-18T00:23:42;59.43;;;18.57;;
422;SDS011;198;48.752;9.180;2022-12-18T00:26:15;54.23;;;16.00;;
422;SDS011;198;48.752;9.180;2022-12-18T00:28:44;57.10;;;21.83;;
422;SDS011;198;48.752;9.180;2022-12-18T00:31:15;50.37;;;16.90;;
422;SDS011;198;48.752;9.180;2022-12-18T00:33:43;54.03;;;19.27;;
422;SDS011;198;48.752;9.180;2022-12-18T00:36:10;61.77;;;18.63;;
422;SDS011;198;48.752;9.180;2022-12-18T00:38:37;54.77;;;18.77;;
422;SDS011;198;48.752;9.180;2022-12-18T00:41:06;55.93;;;18.40;;
422;SDS011;198;48.752;9.180;2022-12-18T00:43:34;42.63;;;17.00;;
422;SDS011;198;48.752;9.180;2022-12-18T00:46:00;46.97;;;17.20;;
422;SDS011;198;48.752;9.180;2022-12-18T00:48:26;47.53;;;15.23;;
422;SDS011;198;48.752;9.180;2022-12-18T00:50:51;57.57;;;16.03;;
422;SDS011;198;48.752;9.180;2022-12-18T00:53:17;56.17;;;16.97;;
422;SDS011;198;48.752;9.180;2022-12-18T00:55:43;50.37;;;17.73;;
422;SDS011;198;48.752;9.180;2022-12-18T00:58:10;60.13;;;18.43;;
422;SDS011;198;48.752;9.180;2022-12-18T01:00:36;45.60;;;18.70;;
422;SDS011;198;48.752;9.180;2022-12-18T01:03:03;59.87;;;20.27;;
422;SDS011;198;48.752;9.180;2022-12-18T01:05:29;59.77;;;18.03;;
422;SDS011;198;48.752;9.180;2022-12-18T01:07:55;41.00;;;16.33;;
422;SDS011;198;48.752;9.180;2022-12-18T01:10:21;43.83;;;16.50;;
422;SDS011;198;48.752;9.180;2022-12-18T01:12:47;47.00;;;17.17;;
422;SDS011;198;48.752;9.180;2022-12-18T01:15:12;40.00;;;16.67;;
422;SDS011;198;48.752;9.180;2022-12-18T01:17:38;47.13;;;15.53;;
422;SDS011;198;48.752;9.180;2022-12-18T01:20:04;47.70;;;15.73;;
422;SDS011;198;48.752;9.180;2022-12-18T01:22:30;58.13;;;17.43;;
422;SDS011;198;48.752;9.180;2022-12-18T01:24:55;40.53;;;16.23;;
422;SDS011;198;48.752;9.180;2022-12-18T01:27:21;60.50;;;18.20;;
422;SDS011;198;48.752;9.180;2022-12-18T01:29:46;62.90;;;16.80;;
422;SDS011;198;48.752;9.180;2022-12-18T01:32:12;46.43;;;14.27;;
422;SDS011;198;48.752;9.180;2022-12-18T01:34:37;51.80;;;16.13;;
422;SDS011;198;48.752;9.180;2022-12-18T01:37:04;46.70;;;16.13;;
422;SDS011;198;48.752;9.180;2022-12-18T01:39:30;63.73;;;16.60;;
422;SDS011;198;48.752;9.180;2022-12-18T01:41:57;57.83;;;16.87;;
422;SDS011;198;48.752;9.180;2022-12-18T01:47:31;47.07;;;14.03;;
422;SDS011;198;48.752;9.180;2022-12-18T01:50:07;55.20;;;16.23;;
422;SDS011;198;48.752;9.180;2022-12-18T01:52:33;41.60;;;14.73;;
422;SDS011;198;48.752;9.180;2022-12-18T01:55:00;54.80;;;18.90;;
422;SDS011;198;48.752;9.180;2022-12-18T01:57:28;47.97;;;14.83;;
422;SDS011;198;48.752;9.180;2022-12-18T01:59:55;49.70;;;17.40;;
422;SDS011;198;48.752;9.180;2022-12-18T02:02:26;44.00;;;14.50;;
422;SDS011;198;48.752;9.180;2022-12-18T02:04:53;47.60;;;19.37;;
422;SDS011;198;48.752;9.180;2022-12-18T02:07:32;43.33;;;15.07;;
422;SDS011;198;48.752;9.180;2022-12-18T02:10:13;64.33;;;17.97;;
422;SDS011;198;48.752;9.180;2022-12-18T02:12:48;37.97;;;13.90;;
422;SDS011;198;48.752;9.180;2022-12-18T02:15:55;54.60;;;13.37;;
422;SDS011;198;48.752;9.180;2022-12-18T02:18:40;40.63;;;14.13;;
422;SDS011;198;48.752;9.180;2022-12-18T02:21:13;58.63;;;16.70;;
422;SDS011;198;48.752;9.180;2022-12-18T02:26:37;42.13;;;13.47;;
422;SDS011;198;48.752;9.180;2022-12-18T02:29:22;37.83;;;12.20;;
422;SDS011;198;48.752;9.180;2022-12-18T02:31:53;36.33;;;12.63;;
422;SDS011;198;48.752;9.180;2022-12-18T02:34:24;36.63;;;13.43;;
422;SDS011;198;48.752;9.180;2022-12-18T02:36:53;41.30;;;15.10;;
422;SDS011;198;48.752;9.180;2022-12-18T02:39:20;27.90;;;11.13;;
422;SDS011;198;48.752;9.180;2022-12-18T02:41:48;37.90;;;13.13;;
422;SDS011;198;48.752;9.180;2022-12-18T02:44:14;43.63;;;13.60;;
422;SDS011;198;48.752;9.180;2022-12-18T02:46:43;41.30;;;13.73;;
422;SDS011;198;48.752;9.180;2022-12-18T02:49:36;26.97;;;11.07;;
422;SDS011;198;48.752;9.180;2022-12-18T02:54:55;66.07;;;14.30;;
422;SDS011;198;48.752;9.180;2022-12-18T02:57:30;38.37;;;12.87;;
422;SDS011;198;48.752;9.180;2022-12-18T03:02:32;28.90;;;11.37;;
422;SDS011;198;48.752;9.180;2022-12-18T03:05:07;41.70;;;12.17;;
422;SDS011;198;48.752;9.180;2022-12-18T03:07:38;44.67;;;14.33;;
422;SDS011;198;48.752;9.180;2022-12-18T03:10:07;40.00;;;10.70;;
422;SDS011;198;48.752;9.180;2022-12-18T03:12:37;32.27;;;11.77;;
422;SDS011;198;48.752;9.180;2022-12-18T03:15:10;36.67;;;11.97;;
422;SDS011;198;48.752;9.180;2022-12-18T03:17:52;38.43;;;12.10;;
422;SDS011;198;48.752;9.180;2022-12-18T03:20:28;40.37;;;12.60;;
422;SDS011;198;48.752;9.180;2022-12-18T03:22:58;35.67;;;10.80;;
422;SDS011;198;48.752;9.180;2022-12-18T03:25:34;30.50;;;12.00;;
422;SDS011;198;48.752;9.180;2022-12-18T03:28:06;43.47;;;12.17;;
422;SDS011;198;48.752;9.180;2022-12-18T03:30:37;44.40;;;14.60;;
422;SDS011;198;48.752;9.180;2022-12-18T03:33:09;43.03;;;13.30;;
422;SDS011;198;48.752;9.180;2022-12-18T03:35:39;45.40;;;11.47;;
422;SDS011;198;48.752;9.180;2022-12-18T03:38:08;42.70;;;12.97;;
422;SDS011;198;48.752;9.180;2022-12-18T03:40:39;33.43;;;12.10;;
422;SDS011;198;48.752;9.180;2022-12-18T03:43:23;45.97;;;14.17;;
422;SDS011;198;48.752;9.180;2022-12-18T03:45:59;39.33;;;13.97;;
422;SDS011;198;48.752;9.180;2022-12-18T03:48:34;37.80;;;11.70;;
422;SDS011;198;48.752;9.180;2022-12-18T03:51:10;38.27;;;10.23;;
422;SDS011;198;48.752;9.180;2022-12-18T03:53:58;41.67;;;12.03;;
422;SDS011;198;48.752;9.180;2022-12-18T03:56:29;43.97;;;13.83;;
422;SDS011;198;48.752;9.180;2022-12-18T03:58:57;44.00;;;12.97;;
422;SDS011;198;48.752;9.180;2022-12-18T04:01:32;35.90;;;12.73;;
422;SDS011;198;48.752;9.180;2022-12-18T04:04:00;30.17;;;12.53;;
422;SDS011;198;48.752;9.180;2022-12-18T04:06:27;48.73;;;13.33;;
422;SDS011;198;48.752;9.180;2022-12-18T04:08:54;48.90;;;15.10;;
422;SDS011;198;48.752;9.180;2022-12-18T04:11:21;51.63;;;15.90;;
422;SDS011;198;48.752;9.180;2022-12-18T04:13:46;38.83;;;15.50;;
422;SDS011;198;48.752;9.180;2022-12-18T04:16:12;39.27;;;11.27;;
422;SDS011;198;48.752;9.180;2022-12-18T04:18:37;43.23;;;12.13;;
422;SDS011;198;48.752;9.180;2022-12-18T04:21:03;36.77;;;13.57;;
422;SDS011;198;48.752;9.180;2022-12-18T04:23:28;40.50;;;14.67;;
422;SDS011;198;48.752;9.180;2022-12-18T04:25:54;43.03;;;12.37;;
422;SDS011;198;48.752;9.180;2022-12-18T04:28:20;36.17;;;12.67;;
422;SDS011;198;48.752;9.180;2022-12-18T04:30:45;51.67;;;16.10;;
422;SDS011;198;48.752;9.180;2022-12-18T04:33:14;41.20;;;12.17;;
422;SDS011;198;48.752;9.180;2022-12-18T04:35:39;23.07;;;11.03;;
422;SDS011;198;48.752;9.180;2022-12-18T04:38:06;37.63;;;13.07;;
422;SDS011;198;48.752;9.180;2022-12-18T04:40:33;37.63;;;14.73;;
422;SDS011;198;48.752;9.180;2022-12-18T04:42:59;38.80;;;12.70;;
422;SDS011;198;48.752;9.180;2022-12-18T04:45:24;40.53;;;12.47;;
422;SDS011;198;48.752;9.180;2022-12-18T04:47:50;44.10;;;14.00;;
422;SDS011;198;48.752;9.180;2022-12-18T04:50:15;35.63;;;11.80;;
422;SDS011;198;48.752;9.180;2022-12-18T04:52:41;32.73;;;12.00;;
422;SDS011;198;48.752;9.180;2022-12-18T04:55:06;28.43;;;10.40;;
422;SDS011;198;48.752;9.180;2022-12-18T04:57:32;33.80;;;12.93;;
422;SDS011;198;48.752;9.180;2022-12-18T04:59:57;42.17;;;12.77;;
422;SDS011;198;48.752;9.180;2022-12-18T05:02:23;26.43;;;12.83;;
422;SDS011;198;48.752;9.180;2022-12-18T05:04:48;48.73;;;12.80;;
422;SDS011;198;48.752;9.180;2022-12-18T05:07:14;28.80;;;11.53;;
422;SDS011;198;48.752;9.180;2022-12-18T05:09:39;22.20;;;10.07;;
422;SDS011;198;48.752;9.180;2022-12-18T05:12:05;22.97;;;10.97;;
422;SDS011;198;48.752;9.180;2022-12-18T05:14:31;21.03;;;9.07;;
422;SDS011;198;48.752;9.180;2022-12-18T05:16:56;38.93;;;10.87;;
422;SDS011;198;48.752;9.180;2022-12-18T05:19:21;34.37;;;11.20;;
422;SDS011;198;48.752;9.180;2022-12-18T05:21:47;33.53;;;11.73;;
422;SDS011;198;48.752;9.180;2022-12-18T05:24:12;32.80;;;12.23;;
422;SDS011;198;48.752;9.180;2022-12-18T05:26:38;32.30;;;10.67;;
422;SDS011;198;48.752;9.180;2022-12-18T05:29:03;33.33;;;10.93;;
422;SDS011;198;48.752;9.180;2022-12-18T05:31:29;30.73;;;10.67;;
422;SDS011;198;48.752;9.180;2022-12-18T05:33:55;37.70;;;10.90;;
422;SDS011;198;48.752;9.180;2022-12-18T05:36:20;32.63;;;12.70;;
422;SDS011;198;48.752;9.180;2022-12-18T05:38:46;36.47;;;11.63;;
422;SDS011;198;48.752;9.180;2022-12-18T05:41:11;33.37;;;12.43;;
422;SDS011;198;48.752;9.180;2022-12-18T05:43:37;33.27;;;13.23;;
422;SDS011;198;48.752;9.180;2022-12-18T05:46:07;36.95;;;12.80;;
422;SDS011;198;48.752;9.180;2022-12-18T05:48:36;28.83;;;10.63;;
422;SDS011;198;48.752;9.180;2022-12-18T05:51:05;36.60;;;10.80;;
422;SDS011;198;48.752;9.180;2022-12-18T05:53:36;40.67;;;13.57;;
422;SDS011;198;48.752;9.180;2022-12-18T05:56:03;31.63;;;12.30;;
422;SDS011;198;48.752;9.180;2022-12-18T05:58:30;39.73;;;11.30;;
422;SDS011;198;48.752;9.180;2022-12-18T06:00:56;30.50;;;12.30;;
422;SDS011;198;48.752;9.180;2022-12-18T06:03:22;30.63;;;11.30;;
422;SDS011;198;48.752;9.180;2022-12-18T06:05:48;35.70;;;11.00;;
422;SDS011;198;48.752;9.180;2022-12-18T06:08:14;26.97;;;12.80;;
422;SDS011;198;48.752;9.180;2022-12-18T06:10:40;45.20;;;12.67;;
422;SDS011;198;48.752;9.180;2022-12-18T06:13:06;30.13;;;11.13;;
422;SDS011;198;48.752;9.180;2022-12-18T06:15:32;37.63;;;11.90;;
422;SDS011;198;48.752;9.180;2022-12-18T06:18:00;37.03;;;10.73;;
422;SDS011;198;48.752;9.180;2022-12-18T06:20:26;34.53;;;9.10;;
422;SDS011;198;48.752;9.180;2022-12-18T06:22:51;33.17;;;11.20;;
422;SDS011;198;48.752;9.180;2022-12-18T06:25:17;38.00;;;11.37;;
422;SDS011;198;48.752;9.180;2022-12-18T06:27:42;26.53;;;10.30;;
422;SDS011;198;48.752;9.180;2022-12-18T06:30:08;30.23;;;11.33;;
422;SDS011;198;48.752;9.180;2022-12-18T06:32:34;28.33;;;12.57;;
422;SDS011;198;48.752;9.180;2022-12-18T06:35:00;27.57;;;10.80;;
422;SDS011;198;48.752;9.180;2022-12-18T06:37:26;37.03;;;11.87;;
422;SDS011;198;48.752;9.180;2022-12-18T06:39:54;36.60;;;11.57;;
422;SDS011;198;48.752;9.180;2022-12-18T06:42:21;40.30;;;11.50;;
422;SDS011;198;48.752;9.180;2022-12-18T06:44:47;31.77;;;10.50;;
422;SDS011;198;48.752;9.180;2022-12-18T06:47:12;28.83;;;10.33;;
422;SDS011;198;48.752;9.180;2022-12-18T06:49:38;32.87;;;11.70;;
422;SDS011;198;48.752;9.180;2022-12-18T06:52:03;30.27;;;12.90;;
422;SDS011;198;48.752;9.180;2022-12-18T06:54:29;40.10;;;14.73;;
422;SDS011;198;48.752;9.180;2022-12-18T06:56:54;26.17;;;8.90;;
422;SDS011;198;48.752;9.180;2022-12-18T06:59:21;32.47;;;11.47;;
422;SDS011;198;48.752;9.180;2022-12-18T07:01:46;36.50;;;11.27;;
422;SDS011;198;48.752;9.180;2022-12-18T07:04:12;33.20;;;11.23;;
422;SDS011;198;48.752;9.180;2022-12-18T07:06:37;37.43;;;12.33;;
422;SDS011;198;48.752;9.180;2022-12-18T07:09:03;27.27;;;10.40;;
422;SDS011;198;48.752;9.180;2022-12-18T07:11:28;32.73;;;10.90;;
422;SDS011;198;48.752;9.180;2022-12-18T07:13:54;26.50;;;10.60;;
422;SDS011;198;48.752;9.180;2022-12-18T07:16:20;36.83;;;9.50;;
422;SDS011;198;48.752;9.180;2022-12-18T07:18:46;33.80;;;11.30;;
422;SDS011;198;48.752;9.180;2022-12-18T07:21:14;36.17;;;12.37;;
422;SDS011;198;48.752;9.180;2022-12-18T07:23:42;33.40;;;11.97;;
422;SDS011;198;48.752;9.180;2022-12-18T07:26:09;24.97;;;8.90;;
422;SDS011;198;48.752;9.180;2022-12-18T07:28:37;28.33;;;10.70;;
422;SDS011;198;48.752;9.180;2022-12-18T07:31:07;32.40;;;11.13;;
422;SDS011;198;48.752;9.180;2022-12-18T07:33:37;30.83;;;10.53;;
422;SDS011;198;48.752;9.180;2022-12-18T07:36:04;29.83;;;10.63;;
422;SDS011;198;48.752;9.180;2022-12-18T07:38:31;23.27;;;8.03;;
422;SDS011;198;48.752;9.180;2022-12-18T07:41:01;30.10;;;12.30;;
422;SDS011;198;48.752;9.180;2022-12-18T07:43:37;30.77;;;10.70;;
422;SDS011;198;48.752;9.180;2022-12-18T07:46:04;34.50;;;11.00;;
422;SDS011;198;48.752;9.180;2022-12-18T07:48:30;25.90;;;7.73;;
422;SDS011;198;48.752;9.180;2022-12-18T07:50:59;52.10;;;11.80;;
422;SDS011;198;48.752;9.180;2022-12-18T07:53:26;23.63;;;10.40;;
422;SDS011;198;48.752;9.180;2022-12-18T07:55:58;48.97;;;9.40;;
422;SDS011;198;48.752;9.180;2022-12-18T07:58:25;36.57;;;12.07;;
422;SDS011;198;48.752;9.180;2022-12-18T08:00:51;49.23;;;11.43;;
422;SDS011;198;48.752;9.180;2022-12-18T08:03:17;28.13;;;10.00;;
422;SDS011;198;48.752;9.180;2022-12-18T08:05:42;34.23;;;9.13;;
422;SDS011;198;48.752;9.180;2022-12-18T08:08:08;25.93;;;11.00;;
422;SDS011;198;48.752;9.180;2022-12-18T08:10:34;27.53;;;10.97;;
422;SDS011;198;48.752;9.180;2022-12-18T08:12:59;35.83;;;10.67;;
422;SDS011;198;48.752;9.180;2022-12-18T08:15:25;26.90;;;8.90;;
422;SDS011;198;48.752;9.180;2022-12-18T08:17:50;22.60;;;8.50;;
422;SDS011;198;48.752;9.180;2022-12-18T08:20:16;28.10;;;9.30;;
422;SDS011;198;48.752;9.180;2022-12-18T08:22:43;35.93;;;12.30;;
422;SDS011;198;48.752;9.180;2022-12-18T08:25:08;43.73;;;10.17;;
422;SDS011;198;48.752;9.180;2022-12-18T08:27:34;29.57;;;9.80;;
422;SDS011;198;48.752;9.180;2022-12-18T08:30:00;34.33;;;10.27;;
422;SDS011;198;48.752;9.180;2022-12-18T08:32:26;33.37;;;11.30;;
422;SDS011;198;48.752;9.180;2022-12-18T08:34:53;29.63;;;11.83;;
422;SDS011;198;48.752;9.180;2022-12-18T08:37:18;31.13;;;12.30;;
422;SDS011;198;48.752;9.180;2022-12-18T08:39:44;25.37;;;10.53;;
422;SDS011;198;48.752;9.180;2022-12-18T08:42:10;40.00;;;13.17;;
422;SDS011;198;48.752;9.180;2022-12-18T08:44:54;33.07;;;10.83;;
422;SDS011;198;48.752;9.180;2022-12-18T08:47:20;27.27;;;11.07;;
422;SDS011;198;48.752;9.180;2022-12-18T08:49:45;33.00;;;11.20;;
422;SDS011;198;48.752;9.180;2022-12-18T08:52:14;30.67;;;11.00;;
422;SDS011;198;48.752;9.180;2022-12-18T08:54:39;33.10;;;11.10;;
422;SDS011;198;48.752;9.180;2022-12-18T08:57:05;24.93;;;10.27;;
422;SDS011;198;48.752;9.180;2022-12-18T08:59:30;32.07;;;10.97;;
422;SDS011;198;48.752;9.180;2022-12-18T09:01:56;28.80;;;10.93;;
422;SDS011;198;48.752;9.180;2022-12-18T09:04:21;25.00;;;8.60;;
422;SDS011;198;48.752;9.180;2022-12-18T09:06:47;33.40;;;11.13;;
422;SDS011;198;48.752;9.180;2022-12-18T09:09:13;44.43;;;11.67;;
422;SDS011;198;48.752;9.180;2022-12-18T09:11:38;28.47;;;10.17;;
422;SDS011;198;48.752;9.180;2022-12-18T09:14:04;30.70;;;11.37;;
422;SDS011;198;48.752;9.180;2022-12-18T09:16:30;38.33;;;11.63;;
422;SDS011;198;48.752;9.180;2022-12-18T09:18:57;38.33;;;11.77;;
422;SDS011;198;48.752;9.180;2022-12-18T09:21:28;32.00;;;10.13;;
422;SDS011;198;48.752;9.180;2022-12-18T09:23:58;31.57;;;11.27;;
422;SDS011;198;48.752;9.180;2022-12-18T09:26:24;37.27;;;12.93;;
422;SDS011;198;48.752;9.180;2022-12-18T09:28:51;28.10;;;12.10;;
422;SDS011;198;48.752;9.180;2022-12-18T09:31:17;34.97;;;11.60;;
422;SDS011;198;48.752;9.180;2022-12-18T09:33:44;31.50;;;12.63;;
422;SDS011;198;48.752;9.180;2022-12-18T09:36:14;28.53;;;10.83;;
422;SDS011;198;48.752;9.180;2022-12-18T09:38:41;38.73;;;13.90;;
422;SDS011;198;48.752;9.180;2022-12-18T09:43:49;31.10;;;12.30;;
422;SDS011;198;48.752;9.180;2022-12-18T09:46:19;29.17;;;12.43;;
422;SDS011;198;48.752;9.180;2022-12-18T09:48:51;30.60;;;11.70;;
422;SDS011;198;48.752;9.180;2022-12-18T09:51:24;34.33;;;13.73;;
422;SDS011;198;48.752;9.180;2022-12-18T09:54:05;41.73;;;13.63;;
422;SDS011;198;48.752;9.180;2022-12-18T09:56:39;39.87;;;12.43;;
422;SDS011;198;48.752;9.180;2022-12-18T09:59:09;29.40;;;12.00;;
422;SDS011;198;48.752;9.180;2022-12-18T10:01:41;32.80;;;13.10;;
422;SDS011;198;48.752;9.180;2022-12-18T10:04:08;29.70;;;12.03;;
422;SDS011;198;48.752;9.180;2022-12-18T10:09:48;28.50;;;12.37;;
422;SDS011;198;48.752;9.180;2022-12-18T10:14:36;36.73;;;12.30;;
422;SDS011;198;48.752;9.180;2022-12-18T10:17:30;33.90;;;10.80;;
422;SDS011;198;48.752;9.180;2022-12-18T10:19:59;35.00;;;11.33;;
422;SDS011;198;48.752;9.180;2022-12-18T10:22:53;40.87;;;11.77;;
422;SDS011;198;48.752;9.180;2022-12-18T10:25:40;51.37;;;15.07;;
422;SDS011;198;48.752;9.180;2022-12-18T10:28:28;39.67;;;14.50;;
422;SDS011;198;48.752;9.180;2022-12-18T10:30:56;38.50;;;13.50;;
422;SDS011;198;48.752;9.180;2022-12-18T10:33:22;68.70;;;13.07;;
422;SDS011;198;48.752;9.180;2022-12-18T10:35:50;34.30;;;13.23;;
422;SDS011;198;48.752;9.180;2022-12-18T10:43:20;48.23;;;15.60;;
422;SDS011;198;48.752;9.180;2022-12-18T10:46:49;43.03;;;13.67;;
422;SDS011;198;48.752;9.180;2022-12-18T10:53:51;36.93;;;11.70;;
422;SDS011;198;48.752;9.180;2022-12-18T10:56:19;37.33;;;12.07;;
422;SDS011;198;48.752;9.180;2022-12-18T10:58:46;33.23;;;12.07;;
422;SDS011;198;48.752;9.180;2022-12-18T11:01:21;56.53;;;15.23;;
422;SDS011;198;48.752;9.180;2022-12-18T11:06:16;34.53;;;12.53;;
422;SDS011;198;48.752;9.180;2022-12-18T11:08:44;44.67;;;13.40;;
422;SDS011;198;48.752;9.180;2022-12-18T11:11:29;46.93;;;14.47;;
422;SDS011;198;48.752;9.180;2022-12-18T11:14:01;37.70;;;13.63;;
422;SDS011;198;48.752;9.180;2022-12-18T11:16:30;35.13;;;12.83;;
422;SDS011;198;48.752;9.180;2022-12-18T11:19:26;47.07;;;14.10;;
422;SDS011;198;48.752;9.180;2022-12-18T11:21:58;38.00;;;13.57;;
422;SDS011;198;48.752;9.180;2022-12-18T11:24:33;39.57;;;11.77;;
422;SDS011;198;48.752;9.180;2022-12-18T11:27:00;41.47;;;12.57;;
422;SDS011;198;48.752;9.180;2022-12-18T11:29:33;39.83;;;13.20;;
422;SDS011;198;48.752;9.180;2022-12-18T11:35:13;38.03;;;13.23;;
422;SDS011;198;48.752;9.180;2022-12-18T11:37:46;42.27;;;15.03;;
422;SDS011;198;48.752;9.180;2022-12-18T11:40:17;44.67;;;15.20;;
422;SDS011;198;48.752;9.180;2022-12-18T11:42:50;39.73;;;13.60;;
422;SDS011;198;48.752;9.180;2022-12-18T11:45:27;49.43;;;14.03;;
422;SDS011;198;48.752;9.180;2022-12-18T11:50:45;40.43;;;13.27;;
422;SDS011;198;48.752;9.180;2022-12-18T11:53:16;38.27;;;12.93;;
422;SDS011;198;48.752;9.180;2022-12-18T11:58:43;48.43;;;13.33;;
422;SDS011;198;48.752;9.180;2022-12-18T12:04:26;31.23;;;11.50;;
422;SDS011;198;48.752;9.180;2022-12-18T12:07:04;36.70;;;12.30;;
422;SDS011;198;48.752;9.180;2022-12-18T12:12:17;40.50;;;13.13;;
422;SDS011;198;48.752;9.180;2022-12-18T12:20:39;38.07;;;13.53;;
422;SDS011;198;48.752;9.180;2022-12-18T12:33:42;47.63;;;15.10;;
422;SDS011;198;48.752;9.180;2022-12-18T12:36:21;39.53;;;13.33;;
422;SDS011;198;48.752;9.180;2022-12-18T12:38:58;43.30;;;13.63;;
422;SDS011;198;48.752;9.180;2022-12-18T12:41:31;40.03;;;13.23;;
422;SDS011;198;48.752;9.180;2022-12-18T12:44:22;38.63;;;13.17;;
422;SDS011;198;48.752;9.180;2022-12-18T12:46:55;41.43;;;14.30;;
422;SDS011;198;48.752;9.180;2022-12-18T12:49:24;40.27;;;12.80;;
422;SDS011;198;48.752;9.180;2022-12-18T12:52:00;42.10;;;13.10;;
422;SDS011;198;48.752;9.180;2022-12-18T12:54:38;34.33;;;14.00;;
422;SDS011;198;48.752;9.180;2022-12-18T12:59:37;40.00;;;11.70;;
422;SDS011;198;48.752;9.180;2022-12-18T13:08:12;39.30;;;13.50;;
422;SDS011;198;48.752;9.180;2022-12-18T13:10:49;31.33;;;11.07;;
422;SDS011;198;48.752;9.180;2022-12-18T13:13:48;55.00;;;15.47;;
422;SDS011;198;48.752;9.180;2022-12-18T13:16:17;47.70;;;13.97;;
422;SDS011;198;48.752;9.180;2022-12-18T13:18:48;37.37;;;13.10;;
422;SDS011;198;48.752;9.180;2022-12-18T13:23:51;42.33;;;14.20;;
422;SDS011;198;48.752;9.180;2022-12-18T13:34:11;46.47;;;12.20;;
422;SDS011;198;48.752;9.180;2022-12-18T13:36:43;40.30;;;12.70;;
422;SDS011;198;48.752;9.180;2022-12-18T13:41:38;40.90;;;14.10;;
422;SDS011;198;48.752;9.180;2022-12-18T13:44:22;42.90;;;14.90;;
422;SDS011;198;48.752;9.180;2022-12-18T13:46:50;40.20;;;12.40;;
422;SDS011;198;48.752;9.180;2022-12-18T13:52:01;45.10;;;12.83;;
422;SDS011;198;48.752;9.180;2022-12-18T13:56:59;49.23;;;15.60;;
422;SDS011;198;48.752;9.180;2022-12-18T13:59:26;46.20;;;15.57;;
422;SDS011;198;48.752;9.180;2022-12-18T14:01:59;47.37;;;15.43;;
422;SDS011;198;48.752;9.180;2022-12-18T14:04:31;44.97;;;15.10;;
422;SDS011;198;48.752;9.180;2022-12-18T14:07:03;37.10;;;13.93;;
422;SDS011;198;48.752;9.180;2022-12-18T14:09:35;35.03;;;13.83;;
422;SDS011;198;48.752;9.180;2022-12-18T14:12:02;45.43;;;16.30;;
422;SDS011;198;48.752;9.180;2022-12-18T14:14:47;36.97;;;14.33;;
422;SDS011;198;48.752;9.180;2022-12-18T14:17:15;47.90;;;14.93;;
422;SDS011;198;48.752;9.180;2022-12-18T14:19:43;55.40;;;16.33;;
422;SDS011;198;48.752;9.180;2022-12-18T14:22:14;58.17;;;15.30;;
422;SDS011;198;48.752;9.180;2022-12-18T14:24:41;57.23;;;15.77;;
422;SDS011;198;48.752;9.180;2022-12-18T14:27:21;49.03;;;16.80;;
422;SDS011;198;48.752;9.180;2022-12-18T14:29:48;54.30;;;14.90;;
422;SDS011;198;48.752;9.180;2022-12-18T14:32:15;55.27;;;16.20;;
422;SDS011;198;48.752;9.180;2022-12-18T14:34:48;48.93;;;16.37;;
422;SDS011;198;48.752;9.180;2022-12-18T14:37:20;65.50;;;16.27;;
422;SDS011;198;48.752;9.180;2022-12-18T14:39:57;53.67;;;18.07;;
422;SDS011;198;48.752;9.180;2022-12-18T14:42:29;54.13;;;15.93;;
422;SDS011;198;48.752;9.180;2022-12-18T14:48:00;37.20;;;14.07;;
422;SDS011;198;48.752;9.180;2022-12-18T14:50:31;57.07;;;18.83;;
422;SDS011;198;48.752;9.180;2022-12-18T14:52:57;47.93;;;18.73;;
422;SDS011;198;48.752;9.180;2022-12-18T14:55:23;48.53;;;17.60;;
422;SDS011;198;48.752;9.180;2022-12-18T14:57:49;57.70;;;18.20;;
422;SDS011;198;48.752;9.180;2022-12-18T15:00:18;57.57;;;16.00;;
422;SDS011;198;48.752;9.180;2022-12-18T15:02:46;56.83;;;16.90;;
422;SDS011;198;48.752;9.180;2022-12-18T15:05:21;78.57;;;16.53;;
422;SDS011;198;48.752;9.180;2022-12-18T15:07:58;48.47;;;17.73;;
422;SDS011;198;48.752;9.180;2022-12-18T15:10:25;57.03;;;16.80;;
422;SDS011;198;48.752;9.180;2022-12-18T15:20:32;54.53;;;16.60;;
422;SDS011;198;48.752;9.180;2022-12-18T15:23:17;79.40;;;18.23;;
422;SDS011;198;48.752;9.180;2022-12-18T15:25:49;55.57;;;16.33;;
422;SDS011;198;48.752;9.180;2022-12-18T15:33:41;64.87;;;17.13;;
422;SDS011;198;48.752;9.180;2022-12-18T15:36:15;60.93;;;18.00;;
422;SDS011;198;48.752;9.180;2022-12-18T15:38:41;73.03;;;16.43;;
422;SDS011;198;48.752;9.180;2022-12-18T15:41:13;45.50;;;17.00;;
422;SDS011;198;48.752;9.180;2022-12-18T15:43:39;52.47;;;16.43;;
422;SDS011;198;48.752;9.180;2022-12-18T15:46:06;64.27;;;17.30;;
422;SDS011;198;48.752;9.180;2022-12-18T15:48:40;54.20;;;16.63;;
422;SDS011;198;48.752;9.180;2022-12-18T15:51:11;55.17;;;14.53;;
422;SDS011;198;48.752;9.180;2022-12-18T15:53:43;54.37;;;16.97;;
422;SDS011;198;48.752;9.180;2022-12-18T15:56:13;53.77;;;15.87;;
422;SDS011;198;48.752;9.180;2022-12-18T15:58:58;49.47;;;16.17;;
422;SDS011;198;48.752;9.180;2022-12-18T16:01:25;54.20;;;15.73;;
422;SDS011;198;48.752;9.180;2022-12-18T16:03:53;64.37;;;17.93;;
422;SDS011;198;48.752;9.180;2022-12-18T16:06:19;65.97;;;19.20;;
422;SDS011;198;48.752;9.180;2022-12-18T16:08:45;46.63;;;17.00;;
422;SDS011;198;48.752;9.180;2022-12-18T16:11:29;65.43;;;18.77;;
422;SDS011;198;48.752;9.180;2022-12-18T16:14:22;56.73;;;14.13;;
422;SDS011;198;48.752;9.180;2022-12-18T16:16:53;61.80;;;16.60;;
422;SDS011;198;48.752;9.180;2022-12-18T16:19:21;39.20;;;16.17;;
422;SDS011;198;48.752;9.180;2022-12-18T16:21:47;48.53;;;16.23;;
422;SDS011;198;48.752;9.180;2022-12-18T16:24:15;52.17;;;15.87;;
422;SDS011;198;48.752;9.180;2022-12-18T16:26:43;52.40;;;17.40;;
422;SDS011;198;48.752;9.180;2022-12-18T16:29:09;45.87;;;14.37;;
422;SDS011;198;48.752;9.180;2022-12-18T16:31:34;57.30;;;15.70;;
422;SDS011;198;48.752;9.180;2022-12-18T16:34:23;43.57;;;15.10;;
422;SDS011;198;48.752;9.180;2022-12-18T16:36:57;42.03;;;15.27;;
422;SDS011;198;48.752;9.180;2022-12-18T16:39:24;67.13;;;22.30;;
422;SDS011;198;48.752;9.180;2022-12-18T16:41:52;59.87;;;17.27;;
422;SDS011;198;48.752;9.180;2022-12-18T16:44:17;54.37;;;17.57;;
422;SDS011;198;48.752;9.180;2022-12-18T16:46:44;49.87;;;16.30;;
422;SDS011;198;48.752;9.180;2022-12-18T16:49:13;43.63;;;15.13;;
422;SDS011;198;48.752;9.180;2022-12-18T16:51:39;51.57;;;16.17;;
422;SDS011;198;48.752;9.180;2022-12-18T16:54:08;48.80;;;15.37;;
422;SDS011;198;48.752;9.180;2022-12-18T16:56:34;48.00;;;14.00;;
422;SDS011;198;48.752;9.180;2022-12-18T16:59:00;36.53;;;12.80;;
422;SDS011;198;48.752;9.180;2022-12-18T17:01:28;46.20;;;14.90;;
422;SDS011;198;48.752;9.180;2022-12-18T17:03:58;37.87;;;15.03;;
422;SDS011;198;48.752;9.180;2022-12-18T17:06:25;47.93;;;16.43;;
422;SDS011;198;48.752;9.180;2022-12-18T17:08:59;61.17;;;17.50;;
422;SDS011;198;48.752;9.180;2022-12-18T17:11:30;52.00;;;16.80;;
422;SDS011;198;48.752;9.180;2022-12-18T17:13:56;48.50;;;15.27;;
422;SDS011;198;48.752;9.180;2022-12-18T17:16:22;41.17;;;15.10;;